createdAt,value
2024-01-06T00:00:11.316Z,101322.28
2024-01-06T00:02:39.471Z,101326.56
2024-01-06T00:05:08.442Z,101328.56
2024-01-06T00:07:38.217Z,101337.09
2024-01-06T00:10:07.217Z,101330.34
2024-01-06T00:12:35.491Z,101328.56
2024-01-06T00:15:04.060Z,101330.34
2024-01-06T00:17:33.120Z,101330.47
2024-01-06T00:20:03.327Z,101332.22
2024-01-06T00:22:31.731Z,101330.72
2024-01-06T00:25:01.459Z,101330.50
2024-01-06T00:27:29.656Z,101332.97
2024-01-06T00:29:57.780Z,101338.88
2024-01-06T00:32:26.056Z,101342.44
2024-01-06T00:34:54.321Z,101346.97
2024-01-06T00:37:22.422Z,101347.88
2024-01-06T00:39:51.213Z,101340.91
2024-01-06T00:42:20.844Z,101354.78
2024-01-06T00:44:49.201Z,101358.31
2024-01-06T00:47:17.437Z,101355.00
2024-01-06T00:49:46.601Z,101367.00
2024-01-06T00:52:14.814Z,101356.66
2024-01-06T00:54:43.041Z,101360.94
2024-01-06T00:57:11.337Z,101369.00
2024-01-06T00:59:40.924Z,101368.41
2024-01-06T01:02:09.101Z,101371.84
2024-01-06T01:04:37.382Z,101379.56
2024-01-06T01:07:05.832Z,101378.84
2024-01-06T01:09:34.167Z,101383.00
2024-01-06T01:12:02.386Z,101385.72
2024-01-06T01:14:30.478Z,101378.00
2024-01-06T01:17:00.108Z,101381.31
2024-01-06T01:19:28.332Z,101385.84
2024-01-06T01:21:56.989Z,101383.34
2024-01-06T01:24:25.394Z,101380.63
2024-01-06T01:26:53.553Z,101383.69
2024-01-06T01:29:21.669Z,101383.78
2024-01-06T01:31:49.930Z,101386.63
2024-01-06T01:34:19.940Z,101386.63
2024-01-06T01:36:48.314Z,101384.59
2024-01-06T01:39:16.881Z,101395.03
2024-01-06T01:41:45.083Z,101389.00
2024-01-06T01:44:14.520Z,101391.59
2024-01-06T01:46:42.695Z,101391.72
2024-01-06T01:49:11.214Z,101386.63
2024-01-06T01:51:41.489Z,101396.00
2024-01-06T01:54:10.190Z,101395.16
2024-01-06T01:56:41.334Z,101404.78
2024-01-06T01:59:13.894Z,101403.81
2024-01-06T02:01:42.735Z,101403.13
2024-01-06T02:04:11.364Z,101408.09
2024-01-06T02:06:41.023Z,101403.00
2024-01-06T02:09:09.298Z,101408.22
2024-01-06T02:11:37.442Z,101413.44
2024-01-06T02:14:05.683Z,101408.22
2024-01-06T02:16:33.826Z,101420.31
2024-01-06T02:19:02.430Z,101418.78
2024-01-06T02:21:31.079Z,101428.25
2024-01-06T02:24:00.756Z,101436.31
2024-01-06T02:26:28.964Z,101433.81
2024-01-06T02:28:57.220Z,101429.44
2024-01-06T02:31:25.389Z,101440.94
2024-01-06T02:33:53.692Z,101446.97
2024-01-06T02:36:22.127Z,101458.38
2024-01-06T02:38:50.311Z,101454.31
2024-01-06T02:41:20.024Z,101462.13
2024-01-06T02:43:49.125Z,101463.91
2024-01-06T02:46:17.258Z,101475.19
2024-01-06T02:48:45.484Z,101483.00
2024-01-06T02:51:14.276Z,101487.41
2024-01-06T02:53:42.497Z,101483.84
2024-01-06T02:56:12.599Z,101481.22
2024-01-06T02:58:42.388Z,101496.75
2024-01-06T03:01:10.580Z,101496.97
2024-01-06T03:03:39.368Z,101497.84
2024-01-06T03:06:08.067Z,101495.44
2024-01-06T03:08:36.769Z,101498.16
2024-01-06T03:11:08.364Z,101502.44
2024-01-06T03:13:36.475Z,101501.69
2024-01-06T03:16:07.515Z,101498.25
2024-01-06T03:18:35.938Z,101506.19
2024-01-06T03:21:04.346Z,101512.44
2024-01-06T03:23:32.725Z,101507.47
2024-01-06T03:26:00.868Z,101511.94
2024-01-06T03:28:28.988Z,101505.06
2024-01-06T03:30:57.319Z,101519.88
2024-01-06T03:33:27.034Z,101511.22
2024-01-06T03:35:55.209Z,101513.94
2024-01-06T03:38:23.315Z,101520.19
2024-01-06T03:40:51.459Z,101516.56
2024-01-06T03:43:19.629Z,101517.47
2024-01-06T03:45:47.828Z,101514.97
2024-01-06T03:48:16.118Z,101522.81
2024-01-06T03:50:46.250Z,101528.00
2024-01-06T03:53:14.477Z,101530.75
2024-01-06T03:55:42.732Z,101528.97
2024-01-06T03:58:10.867Z,101528.13
2024-01-06T04:00:39.044Z,101528.97
2024-01-06T04:03:08.136Z,101529.16
2024-01-06T04:05:36.361Z,101529.28
2024-01-06T04:08:06.636Z,101529.38
2024-01-06T04:10:34.804Z,101534.69
2024-01-06T04:13:02.981Z,101539.91
2024-01-06T04:15:31.176Z,101547.84
2024-01-06T04:18:03.964Z,101543.34
2024-01-06T04:20:32.292Z,101543.47
2024-01-06T04:23:00.716Z,101547.03
2024-01-06T04:25:30.363Z,101543.66
2024-01-06T04:27:58.535Z,101551.50
2024-01-06T04:30:27.388Z,101552.56
2024-01-06T04:32:55.842Z,101556.81
2024-01-06T04:35:24.460Z,101553.59
2024-01-06T04:37:52.600Z,101554.53
2024-01-06T04:40:20.785Z,101556.41
2024-01-06T04:42:50.449Z,101570.16
2024-01-06T04:45:20.644Z,101563.28
2024-01-06T04:47:49.165Z,101565.16
2024-01-06T04:50:17.373Z,101565.16
2024-01-06T04:52:45.734Z,101568.72
2024-01-06T04:55:14.045Z,101574.88
2024-01-06T04:57:42.258Z,101575.69
2024-01-06T05:00:13.595Z,101577.47
2024-01-06T05:02:41.664Z,101574.03
2024-01-06T05:05:10.175Z,101584.47
2024-01-06T05:07:38.330Z,101588.84
2024-01-06T05:10:07.595Z,101601.88
2024-01-06T05:12:35.776Z,101594.25
2024-01-06T05:15:06.203Z,101596.88
2024-01-06T05:17:35.961Z,101597.06
2024-01-06T05:20:05.006Z,101603.97
2024-01-06T05:22:33.101Z,101605.63
2024-01-06T05:25:01.279Z,101608.25
2024-01-06T05:27:29.412Z,101597.06
2024-01-06T05:29:57.522Z,101603.03
2024-01-06T05:32:25.819Z,101605.81
2024-01-06T05:34:55.601Z,101606.47
2024-01-06T05:37:23.848Z,101613.34
2024-01-06T05:39:52.129Z,101622.22
2024-01-06T05:42:20.338Z,101617.91
2024-01-06T05:44:48.544Z,101620.75
2024-01-06T05:47:18.195Z,101621.56
2024-01-06T05:49:46.616Z,101625.97
2024-01-06T05:52:17.279Z,101627.63
2024-01-06T05:54:45.558Z,101626.69
2024-01-06T05:57:14.137Z,101625.97
2024-01-06T05:59:42.333Z,101637.31
2024-01-06T06:02:10.484Z,101632.94
2024-01-06T06:04:38.796Z,101633.03
2024-01-06T06:07:07.008Z,101631.25
2024-01-06T06:09:36.879Z,101638.25
2024-01-06T06:12:05.777Z,101640.84
2024-01-06T06:14:33.946Z,101641.69
2024-01-06T06:17:02.197Z,101642.75
2024-01-06T06:19:30.532Z,101649.63
2024-01-06T06:21:58.762Z,101654.94
2024-01-06T06:24:27.282Z,101655.88
2024-01-06T06:26:56.962Z,101655.03
2024-01-06T06:29:25.312Z,101662.66
2024-01-06T06:31:53.553Z,101673.19
2024-01-06T06:34:21.866Z,101672.13
2024-01-06T06:36:50.171Z,101672.97
2024-01-06T06:39:19.702Z,101683.38
2024-01-06T06:41:47.872Z,101683.38
2024-01-06T06:44:17.506Z,101686.09
2024-01-06T06:46:45.655Z,101694.88
2024-01-06T06:49:14.031Z,101703.53
2024-01-06T06:51:47.813Z,101697.47
2024-01-06T06:54:16.809Z,101706.25
2024-01-06T06:56:45.023Z,101701.09
2024-01-06T06:59:13.344Z,101718.63
2024-01-06T07:01:42.844Z,101714.13
2024-01-06T07:04:11.030Z,101728.88
2024-01-06T07:06:39.472Z,101731.47
2024-01-06T07:09:07.659Z,101726.44
2024-01-06T07:11:35.797Z,101737.53
2024-01-06T07:14:04.025Z,101739.19
2024-01-06T07:16:32.163Z,101740.75
2024-01-06T07:19:01.897Z,101746.16
2024-01-06T07:21:30.340Z,101746.16
2024-01-06T07:23:58.461Z,101747.13
2024-01-06T07:26:26.704Z,101754.94
2024-01-06T07:28:54.875Z,101762.66
2024-01-06T07:31:23.145Z,101762.66
2024-01-06T07:33:51.377Z,101765.34
2024-01-06T07:36:22.578Z,101778.28
2024-01-06T07:38:50.752Z,101775.69
2024-01-06T07:41:18.958Z,101779.31
2024-01-06T07:43:47.171Z,101782.66
2024-01-06T07:46:17.638Z,101786.09
2024-01-06T07:48:47.277Z,101786.09
2024-01-06T07:51:15.932Z,101791.44
2024-01-06T07:53:45.526Z,101804.53
2024-01-06T07:56:13.946Z,101803.59
2024-01-06T07:58:42.092Z,101795.22
2024-01-06T08:01:10.439Z,101804.75
2024-01-06T08:03:38.813Z,101802.22
2024-01-06T08:06:07.432Z,101810.97
2024-01-06T08:08:36.084Z,101807.34
2024-01-06T08:11:06.031Z,101811.81
2024-01-06T08:13:34.132Z,101812.66
2024-01-06T08:16:02.600Z,101809.97
2024-01-06T08:18:31.024Z,101819.53
2024-01-06T08:20:59.488Z,101822.06
2024-01-06T08:23:27.690Z,101820.47
2024-01-06T08:25:56.185Z,101823.91
2024-01-06T08:28:25.775Z,101825.59
2024-01-06T08:30:54.072Z,101836.03
2024-01-06T08:33:22.669Z,101841.97
2024-01-06T08:35:50.979Z,101855.09
2024-01-06T08:38:19.835Z,101850.91
2024-01-06T08:40:49.404Z,101852.56
2024-01-06T08:43:17.559Z,101858.63
2024-01-06T08:45:47.177Z,101862.28
2024-01-06T08:48:16.823Z,101863.28
2024-01-06T08:50:46.785Z,101871.88
2024-01-06T08:53:15.072Z,101866.72
2024-01-06T08:55:46.984Z,101878.75
2024-01-06T08:58:15.779Z,101884.78
2024-01-06T09:00:44.089Z,101884.97
2024-01-06T09:03:14.753Z,101888.34
2024-01-06T09:05:43.126Z,101893.56
2024-01-06T09:08:11.392Z,101897.94
2024-01-06T09:10:40.109Z,101902.31
2024-01-06T09:13:08.209Z,101902.31
2024-01-06T09:15:36.483Z,101907.53
2024-01-06T09:18:05.054Z,101914.41
2024-01-06T09:20:34.796Z,101913.34
2024-01-06T09:23:03.049Z,101913.34
2024-01-06T09:25:31.282Z,101920.16
2024-01-06T09:28:00.142Z,101925.19
2024-01-06T09:30:28.944Z,101922.50
2024-01-06T09:32:57.294Z,101925.75
2024-01-06T09:35:25.519Z,101942.13
2024-01-06T09:37:55.143Z,101942.03
2024-01-06T09:40:25.013Z,101948.09
2024-01-06T09:42:54.893Z,101953.94
2024-01-06T09:45:23.533Z,101951.81
2024-01-06T09:47:53.519Z,101954.97
2024-01-06T09:50:22.301Z,101957.19
2024-01-06T09:52:55.173Z,101966.50
2024-01-06T09:55:27.895Z,101960.59
2024-01-06T09:57:56.674Z,101967.97
2024-01-06T10:00:25.295Z,101974.66
2024-01-06T10:02:53.545Z,101970.09
2024-01-06T10:05:22.093Z,101963.84
2024-01-06T10:07:50.530Z,101984.31
2024-01-06T10:10:18.922Z,101970.97
2024-01-06T10:12:48.690Z,101977.78
2024-01-06T10:15:17.490Z,101970.59
2024-01-06T10:17:46.356Z,101970.38
2024-01-06T10:20:15.282Z,101977.09
2024-01-06T10:22:45.756Z,101972.63
2024-01-06T10:25:15.099Z,101980.06
2024-01-06T10:27:44.369Z,101981.72
2024-01-06T10:30:19.584Z,101978.28
2024-01-06T10:32:47.982Z,101991.97
2024-01-06T10:35:16.698Z,101985.50
2024-01-06T10:37:45.053Z,101997.44
2024-01-06T10:40:15.052Z,101993.69
2024-01-06T10:42:43.643Z,101998.69
2024-01-06T10:45:15.106Z,101994.94
2024-01-06T10:47:43.855Z,101995.78
2024-01-06T10:50:12.897Z,101991.09
2024-01-06T10:52:41.572Z,101999.69
2024-01-06T10:55:10.084Z,101999.47
2024-01-06T10:57:40.205Z,102009.00
2024-01-06T11:00:11.299Z,102010.56
2024-01-06T11:02:43.334Z,102003.47
2024-01-06T11:05:13.383Z,102009.41
2024-01-06T11:07:42.771Z,102008.47
2024-01-06T11:10:18.048Z,102013.50
2024-01-06T11:12:47.178Z,102012.50
2024-01-06T11:15:43.219Z,102009.75
2024-01-06T11:18:35.222Z,102011.13
2024-01-06T11:21:23.515Z,102006.44
2024-01-06T11:24:12.688Z,101996.19
2024-01-06T11:26:41.689Z,101999.31
2024-01-06T11:29:10.303Z,101996.31
2024-01-06T11:31:39.461Z,102010.84
2024-01-06T11:34:18.452Z,102009.59
2024-01-06T11:36:47.515Z,102014.53
2024-01-06T11:39:36.697Z,102008.88
2024-01-06T11:42:06.740Z,102002.56
2024-01-06T11:44:39.110Z,102005.81
2024-01-06T11:47:08.031Z,102002.69
2024-01-06T11:49:38.241Z,102001.53
2024-01-06T11:52:08.110Z,102006.47
2024-01-06T11:54:38.190Z,102007.72
2024-01-06T11:57:06.892Z,101999.53
2024-01-06T11:59:35.046Z,101999.44
2024-01-06T12:02:05.502Z,102005.28
2024-01-06T12:04:33.811Z,102008.75
2024-01-06T12:07:10.858Z,102011.28
2024-01-06T12:09:39.313Z,102007.59
2024-01-06T12:12:08.681Z,102012.81
2024-01-06T12:14:36.807Z,102006.53
2024-01-06T12:17:06.753Z,102003.81
2024-01-06T12:19:39.524Z,102004.75
2024-01-06T12:22:13.216Z,102007.16
2024-01-06T12:24:41.381Z,101999.09
2024-01-06T12:27:12.165Z,102000.75
2024-01-06T12:29:41.630Z,102003.47
2024-01-06T12:32:11.084Z,102009.34
2024-01-06T12:34:40.636Z,102004.00
2024-01-06T12:37:10.602Z,102007.34
2024-01-06T12:39:38.908Z,101998.56
2024-01-06T12:42:07.218Z,102001.06
2024-01-06T12:44:38.227Z,101994.97
2024-01-06T12:47:06.844Z,102002.13
2024-01-06T12:49:38.185Z,101995.94
2024-01-06T12:52:07.618Z,101999.38
2024-01-06T12:54:37.169Z,102006.50
2024-01-06T12:57:05.702Z,102005.91
2024-01-06T12:59:34.239Z,102000.66
2024-01-06T13:02:02.497Z,101996.25
2024-01-06T13:04:30.827Z,102004.13
2024-01-06T13:07:02.919Z,102007.69
2024-01-06T13:09:31.772Z,102000.53
2024-01-06T13:12:01.863Z,102005.06
2024-01-06T13:14:31.265Z,102007.34
2024-01-06T13:16:59.684Z,102006.28
2024-01-06T13:19:28.567Z,102006.16
2024-01-06T13:21:57.006Z,102007.94
2024-01-06T13:24:25.538Z,102012.25
2024-01-06T13:26:53.708Z,102005.13
2024-01-06T13:29:23.252Z,102013.69
2024-01-06T13:31:51.527Z,102021.34
2024-01-06T13:34:20.101Z,102021.22
2024-01-06T13:36:48.355Z,102021.34
2024-01-06T13:39:22.099Z,102015.16
2024-01-06T13:41:50.893Z,102025.53
2024-01-06T13:44:19.275Z,102020.06
2024-01-06T13:46:50.325Z,102019.03
2024-01-06T13:49:19.338Z,102022.59
2024-01-06T13:51:47.846Z,102024.25
2024-01-06T13:54:19.532Z,102026.03
2024-01-06T13:56:48.751Z,102030.53
2024-01-06T13:59:18.060Z,102026.38
2024-01-06T14:01:47.140Z,102034.09
2024-01-06T14:04:18.317Z,102024.59
2024-01-06T14:06:49.277Z,102027.31
2024-01-06T14:09:17.682Z,102028.25
2024-01-06T14:11:46.286Z,102033.72
2024-01-06T14:14:14.485Z,102032.25
2024-01-06T14:16:42.663Z,102035.91
2024-01-06T14:19:10.964Z,102043.06
2024-01-06T14:21:41.152Z,102051.94
2024-01-06T14:24:09.741Z,102054.69
2024-01-06T14:26:38.063Z,102050.47
2024-01-06T14:29:07.361Z,102047.16
2024-01-06T14:31:35.712Z,102058.66
2024-01-06T14:34:04.329Z,102065.78
2024-01-06T14:36:33.476Z,102061.59
2024-01-06T14:39:05.264Z,102063.28
2024-01-06T14:41:33.486Z,102073.84
2024-01-06T14:44:01.753Z,102073.97
2024-01-06T14:46:30.028Z,102072.28
2024-01-06T14:48:58.257Z,102073.25
2024-01-06T14:51:26.542Z,102076.91
2024-01-06T14:53:56.667Z,102089.03
2024-01-06T14:56:27.372Z,102090.81
2024-01-06T14:58:55.540Z,102088.31
2024-01-06T15:01:23.902Z,102088.41
2024-01-06T15:03:52.164Z,102086.63
2024-01-06T15:06:20.571Z,102092.72
2024-01-06T15:08:49.749Z,102100.56
2024-01-06T15:11:18.659Z,102102.44
2024-01-06T15:13:48.236Z,102097.19
2024-01-06T15:16:16.525Z,102114.78
2024-01-06T15:18:44.826Z,102119.28
2024-01-06T15:21:13.726Z,102122.13
2024-01-06T15:23:41.911Z,102118.75
2024-01-06T15:26:10.023Z,102137.06
2024-01-06T15:28:38.084Z,102133.63
2024-01-06T15:31:08.561Z,102139.06
2024-01-06T15:33:39.207Z,102145.13
2024-01-06T15:36:07.963Z,102140.00
2024-01-06T15:38:36.441Z,102146.06
2024-01-06T15:41:06.726Z,102147.00
2024-01-06T15:43:35.142Z,102153.16
2024-01-06T15:46:03.530Z,102159.31
2024-01-06T15:48:33.928Z,102162.13
2024-01-06T15:51:02.742Z,102164.75
2024-01-06T15:53:31.453Z,102164.88
2024-01-06T15:55:59.690Z,102166.72
2024-01-06T15:58:28.038Z,102172.19
2024-01-06T16:00:56.308Z,102180.88
2024-01-06T16:03:24.592Z,102185.44
2024-01-06T16:05:54.349Z,102190.03
2024-01-06T16:08:22.581Z,102185.03
2024-01-06T16:10:50.800Z,102199.97
2024-01-06T16:13:19.310Z,102200.25
2024-01-06T16:15:48.398Z,102216.06
2024-01-06T16:18:16.845Z,102219.69
2024-01-06T16:20:45.501Z,102221.59
2024-01-06T16:23:18.278Z,102226.09
2024-01-06T16:25:47.086Z,102234.13
2024-01-06T16:28:15.259Z,102234.31
2024-01-06T16:30:44.461Z,102231.91
2024-01-06T16:33:12.921Z,102232.94
2024-01-06T16:35:43.035Z,102236.66
2024-01-06T16:38:11.311Z,102242.00
2024-01-06T16:40:40.904Z,102238.75
2024-01-06T16:43:09.083Z,102248.47
2024-01-06T16:45:37.263Z,102244.38
2024-01-06T16:48:06.441Z,102256.59
2024-01-06T16:50:37.853Z,102259.28
2024-01-06T16:53:07.792Z,102256.78
2024-01-06T16:55:35.898Z,102257.72
2024-01-06T16:58:05.954Z,102258.72
2024-01-06T17:00:34.534Z,102255.22
2024-01-06T17:03:02.804Z,102257.16
2024-01-06T17:05:31.219Z,102263.22
2024-01-06T17:07:59.467Z,102260.72
2024-01-06T17:10:27.977Z,102264.16
2024-01-06T17:12:56.360Z,102266.78
2024-01-06T17:15:28.378Z,102272.09
2024-01-06T17:17:56.860Z,102273.13
2024-01-06T17:20:25.921Z,102274.91
2024-01-06T17:22:54.231Z,102269.69
2024-01-06T17:25:22.422Z,102259.41
2024-01-06T17:27:50.715Z,102273.31
2024-01-06T17:30:19.744Z,102279.59
2024-01-06T17:32:49.336Z,102273.59
2024-01-06T17:35:18.073Z,102275.25
2024-01-06T17:37:46.304Z,102269.19
2024-01-06T17:40:15.148Z,102270.03
2024-01-06T17:42:43.516Z,102268.25
2024-01-06T17:45:12.284Z,102268.25
2024-01-06T17:47:42.471Z,102270.88
2024-01-06T17:50:12.505Z,102282.94
2024-01-06T17:52:40.644Z,102275.19
2024-01-06T17:55:09.673Z,102270.88
2024-01-06T17:57:38.120Z,102269.31
2024-01-06T18:00:09.284Z,102273.69
2024-01-06T18:02:39.006Z,102272.03
2024-01-06T18:05:09.571Z,102274.63
2024-01-06T18:07:39.555Z,102281.72
2024-01-06T18:10:10.418Z,102278.38
2024-01-06T18:12:40.216Z,102281.81
2024-01-06T18:15:08.735Z,102287.97
2024-01-06T18:17:37.808Z,102295.88
2024-01-06T18:20:06.776Z,102298.50
2024-01-06T18:22:35.158Z,102295.88
2024-01-06T18:25:05.149Z,102301.13
2024-01-06T18:27:33.429Z,102303.09
2024-01-06T18:30:01.561Z,102302.31
2024-01-06T18:32:29.738Z,102304.22
2024-01-06T18:34:57.918Z,102296.38
2024-01-06T18:37:26.184Z,102302.50
2024-01-06T18:39:54.421Z,102301.78
2024-01-06T18:42:26.066Z,102303.53
2024-01-06T18:44:54.368Z,102316.78
2024-01-06T18:47:22.903Z,102315.09
2024-01-06T18:49:51.726Z,102311.00
2024-01-06T18:52:20.066Z,102321.53
2024-01-06T18:54:48.731Z,102324.25
2024-01-06T18:57:19.304Z,102321.63
2024-01-06T18:59:49.921Z,102328.53
2024-01-06T19:02:18.240Z,102324.25
2024-01-06T19:04:47.557Z,102323.38
2024-01-06T19:07:17.525Z,102331.22
2024-01-06T19:09:45.974Z,102327.78
2024-01-06T19:12:14.216Z,102330.22
2024-01-06T19:14:42.755Z,102331.16
2024-01-06T19:17:12.613Z,102330.09
2024-01-06T19:19:42.118Z,102331.88
2024-01-06T19:22:13.996Z,102334.44
2024-01-06T19:24:44.082Z,102334.44
2024-01-06T19:27:12.834Z,102337.09
2024-01-06T19:29:44.274Z,102340.66
2024-01-06T19:32:14.232Z,102344.22
2024-01-06T19:34:43.185Z,102339.06
2024-01-06T19:37:11.510Z,102346.88
2024-01-06T19:39:39.884Z,102344.22
2024-01-06T19:42:08.708Z,102345.88
2024-01-06T19:44:36.916Z,102351.09
2024-01-06T19:47:05.467Z,102341.59
2024-01-06T19:49:35.327Z,102356.44
2024-01-06T19:52:04.164Z,102353.88
2024-01-06T19:54:33.765Z,102363.50
2024-01-06T19:57:02.237Z,102362.66
2024-01-06T19:59:30.579Z,102367.78
2024-01-06T20:01:58.889Z,102366.09
2024-01-06T20:04:28.040Z,102370.50
2024-01-06T20:06:57.820Z,102367.97
2024-01-06T20:09:26.155Z,102373.09
2024-01-06T20:11:55.121Z,102379.34
2024-01-06T20:14:23.355Z,102374.97
2024-01-06T20:16:53.253Z,102375.81
2024-01-06T20:19:21.556Z,102374.22
2024-01-06T20:21:49.934Z,102382.97
2024-01-06T20:24:19.685Z,102383.91
2024-01-06T20:26:48.122Z,102377.91
2024-01-06T20:29:16.265Z,102388.38
2024-01-06T20:31:44.836Z,102385.75
2024-01-06T20:34:13.531Z,102380.63
2024-01-06T20:36:42.458Z,102392.00
2024-01-06T20:39:11.254Z,102386.84
2024-01-06T20:41:41.186Z,102390.41
2024-01-06T20:44:10.376Z,102392.28
2024-01-06T20:46:39.858Z,102388.91
2024-01-06T20:49:08.353Z,102398.59
2024-01-06T20:51:36.737Z,102390.03
2024-01-06T20:54:06.116Z,102391.88
2024-01-06T20:56:35.165Z,102390.19
2024-01-06T20:59:07.702Z,102389.25
2024-01-06T21:01:36.116Z,102389.34
2024-01-06T21:04:04.316Z,102392.81
2024-01-06T21:06:32.632Z,102393.63
2024-01-06T21:09:00.840Z,102391.97
2024-01-06T21:11:29.339Z,102398.03
2024-01-06T21:13:58.350Z,102391.97
2024-01-06T21:16:27.889Z,102401.56
2024-01-06T21:18:57.279Z,102392.97
2024-01-06T21:21:25.729Z,102394.75
2024-01-06T21:23:53.880Z,102393.91
2024-01-06T21:26:24.764Z,102400.06
2024-01-06T21:28:54.705Z,102400.06
2024-01-06T21:31:23.495Z,102401.72
2024-01-06T21:33:53.358Z,102392.28
2024-01-06T21:36:24.216Z,102394.06
2024-01-06T21:38:52.505Z,102396.78
2024-01-06T21:41:21.899Z,102399.38
2024-01-06T21:43:52.135Z,102396.78
2024-01-06T21:46:20.845Z,102399.47
2024-01-06T21:48:49.250Z,102399.53
2024-01-06T21:51:20.081Z,102398.81
2024-01-06T21:53:48.390Z,102396.28
2024-01-06T21:56:16.740Z,102403.28
2024-01-06T21:58:44.863Z,102402.59
2024-01-06T22:01:13.121Z,102405.28
2024-01-06T22:03:41.380Z,102404.44
2024-01-06T22:06:09.565Z,102407.06
2024-01-06T22:08:40.804Z,102404.44
2024-01-06T22:11:08.909Z,102419.25
2024-01-06T22:13:37.019Z,102418.41
2024-01-06T22:16:07.102Z,102419.34
2024-01-06T22:18:38.502Z,102419.34
2024-01-06T22:21:06.804Z,102419.44
2024-01-06T22:23:35.087Z,102423.91
2024-01-06T22:26:04.853Z,102421.28
2024-01-06T22:28:33.547Z,102421.44
2024-01-06T22:31:02.438Z,102423.31
2024-01-06T22:33:30.892Z,102426.75
2024-01-06T22:35:59.199Z,102427.00
2024-01-06T22:38:30.553Z,102426.09
2024-01-06T22:41:04.914Z,102427.84
2024-01-06T22:43:33.147Z,102432.31
2024-01-06T22:46:01.725Z,102431.50
2024-01-06T22:48:30.227Z,102437.53
2024-01-06T22:50:58.449Z,102439.22
2024-01-06T22:53:26.843Z,102445.38
2024-01-06T22:55:55.074Z,102446.13
2024-01-06T22:58:24.806Z,102449.56
2024-01-06T23:00:53.908Z,102458.31
2024-01-06T23:03:22.330Z,102464.47
2024-01-06T23:05:50.593Z,102471.47
2024-01-06T23:08:18.689Z,102466.25
2024-01-06T23:10:46.887Z,102472.28
2024-01-06T23:13:15.007Z,102475.00
2024-01-06T23:15:44.977Z,102473.22
2024-01-06T23:18:13.416Z,102480.22
2024-01-06T23:20:41.639Z,102488.88
2024-01-06T23:23:09.810Z,102485.44
2024-01-06T23:25:38.703Z,102488.94
2024-01-06T23:28:07.500Z,102495.03
2024-01-06T23:30:37.344Z,102495.03
2024-01-06T23:33:07.436Z,102499.38
2024-01-06T23:35:35.661Z,102503.69
2024-01-06T23:38:03.822Z,102500.25
2024-01-06T23:40:32.134Z,102499.38
2024-01-06T23:43:00.469Z,102500.31
2024-01-06T23:45:29.285Z,102502.91
2024-01-06T23:47:57.651Z,102507.44
2024-01-06T23:50:27.310Z,102507.53
2024-01-06T23:52:55.528Z,102513.69
2024-01-06T23:55:23.677Z,102510.31
2024-01-06T23:57:51.971Z,102510.31
